Time;durP1;ratioP1;P1;durP2;ratioP2;P2;SDS_P1;SDS_P2;PMS_P1;PMS_P2;Temp;Humidity;BMP_temperature;BMP_pressure;BME280_temperature;BME280_humidity;BME280_pressure;Samples;Min_cycle;Max_cycle;Signal;HPM_P1;HPM_P2
2022/09/16 00:00:18;;;;;;;0.00;0.00;;;20.30;99.90;;;20.67;55.26;100655.66;4949104;28;97314;-51
2022/09/16 00:02:44;;;;;;;0.00;0.00;;;20.20;99.90;;;20.67;55.58;100661.03;4949678;28;97446;-49
2022/09/16 00:05:09;;;;;;;0.00;0.00;;;20.20;99.90;;;20.69;55.59;100656.44;4955533;28;97259;-50
2022/09/16 00:07:35;;;;;;;0.00;0.00;;;20.20;99.90;;;20.66;54.69;100656.66;4960700;28;97361;-50
2022/09/16 00:10:03;;;;;;;0.00;0.00;;;20.10;99.90;;;20.61;54.88;100654.34;4960989;28;97421;-49
2022/09/16 00:12:29;;;;;;;0.00;0.00;;;20.00;99.90;;;20.58;55.47;100661.75;4947404;28;97270;-47
2022/09/16 00:14:54;;;;;;;0.00;0.00;;;20.00;99.90;;;20.61;55.79;100658.84;4946458;28;97802;-49
2022/09/16 00:17:21;;;;;;;0.00;0.00;;;20.00;99.90;;;20.61;55.12;100653.47;4946930;28;97212;-50
2022/09/16 00:19:49;;;;;;;0.00;0.00;;;20.10;99.90;;;20.66;55.80;100638.75;4957184;28;97249;-49
2022/09/16 00:22:16;;;;;;;0.00;0.00;;;20.20;99.90;;;20.56;55.50;100635.09;4952743;28;96669;-51
2022/09/16 00:24:41;;;;;;;0.00;0.00;;;20.10;99.90;;;20.45;51.19;100638.59;4957280;28;97428;-50
2022/09/16 00:27:08;;;;;;;0.00;0.00;;;20.00;99.90;;;20.53;55.42;100646.03;4956089;28;110326;-48
2022/09/16 00:29:33;;;;;;;0.00;0.00;;;20.00;99.90;;;20.30;51.12;100642.41;4953224;28;96972;-50
2022/09/16 00:31:59;;;;;;;0.00;0.00;;;19.70;99.90;;;20.34;55.84;100643.03;4955136;28;97517;-50
2022/09/16 00:34:25;;;;;;;0.00;0.00;;;19.60;99.90;;;20.36;55.85;100639.25;4949908;28;97531;-50
2022/09/16 00:36:51;;;;;;;0.00;0.00;;;19.70;99.90;;;20.35;54.85;100645.59;4954438;28;106656;-50
2022/09/16 00:39:17;;;;;;;0.00;0.00;;;19.70;99.90;;;20.40;56.59;100646.09;4951235;28;105510;-50
2022/09/16 00:41:43;;;;;;;0.00;0.00;;;19.80;99.90;;;20.41;51.78;100653.19;4947336;28;111075;-53
2022/09/16 00:44:49;;;;;;;0.00;0.00;;;19.90;99.90;;;20.42;56.24;100649.56;4956024;28;97974;-50
2022/09/16 00:47:20;;;;;;;0.00;0.00;;;19.90;99.90;;;20.45;56.15;100660.03;4948085;28;98853;-50
2022/09/16 00:49:48;;;;;;;0.00;0.00;;;19.90;99.90;;;20.52;56.35;100655.03;4949607;28;99970;-49
2022/09/16 00:52:15;;;;;;;0.10;0.10;;;20.10;99.90;;;20.55;56.09;100653.97;4952973;28;97178;-49
2022/09/16 00:54:42;;;;;;;0.00;0.00;;;20.10;99.90;;;20.49;54.37;100660.63;4956414;28;99529;-49
2022/09/16 00:57:10;;;;;;;0.00;0.00;;;20.10;99.90;;;20.52;53.57;100655.03;4955238;28;99779;-49
2022/09/16 00:59:43;;;;;;;0.00;0.00;;;20.00;99.90;;;20.47;52.58;100651.88;4950939;28;97139;-49
2022/09/16 01:02:13;;;;;;;0.17;0.00;;;19.90;99.90;;;20.40;55.43;100656.81;4955953;28;97189;-48
2022/09/16 01:05:06;;;;;;;0.00;0.00;;;19.70;99.90;;;20.39;56.01;100660.44;4950010;28;100408;-50
2022/09/16 01:07:47;;;;;;;0.00;0.00;;;19.70;99.90;;;20.40;55.74;100645.25;4950123;28;97317;-51
2022/09/16 01:10:18;;;;;;;0.00;0.00;;;19.80;99.90;;;20.44;56.33;100658.31;4944492;28;97199;-52
2022/09/16 01:12:49;;;;;;;0.00;0.00;;;19.90;99.90;;;20.45;55.76;100660.03;4952826;28;97810;-51
2022/09/16 01:15:16;;;;;;;0.00;0.00;;;19.90;99.90;;;20.46;55.98;100653.69;4938848;28;97458;-50
2022/09/16 01:18:09;;;;;;;0.00;0.00;;;19.90;99.90;;;20.49;54.63;100655.28;4954050;28;97025;-50
2022/09/16 01:21:05;;;;;;;0.03;0.03;;;19.90;99.90;;;20.49;55.92;100666.84;4948314;28;97372;-48
2022/09/16 01:24:24;;;;;;;0.00;0.00;;;19.90;99.90;;;20.40;55.48;100667.53;4950133;28;99134;-47
2022/09/16 01:27:20;;;;;;;0.00;0.00;;;19.70;99.90;;;20.36;55.68;100660.69;4945210;28;101251;-50
2022/09/16 01:30:17;;;;;;;0.00;0.00;;;19.70;99.90;;;20.34;56.12;100665.31;4947517;28;97820;-50
2022/09/16 01:33:22;;;;;;;0.00;0.00;;;19.60;99.90;;;20.31;56.30;100668.22;4942454;28;97383;-52
2022/09/16 01:36:06;;;;;;;0.00;0.00;;;19.60;99.90;;;20.31;56.18;100660.19;4945446;28;100383;-53
2022/09/16 01:38:43;;;;;;;0.00;0.00;;;19.60;99.90;;;20.28;56.48;100646.19;4946970;28;98355;-49
2022/09/16 01:41:41;;;;;;;0.00;0.00;;;19.50;99.90;;;20.29;56.54;100648.75;4949643;28;97169;-50
2022/09/16 01:44:25;;;;;;;0.00;0.00;;;19.60;99.90;;;20.31;56.48;100652.16;4947914;28;97613;-52
2022/09/16 01:47:32;;;;;;;0.00;0.00;;;19.70;99.90;;;20.35;55.94;100650.94;4951229;28;104081;-49
2022/09/16 01:50:15;;;;;;;0.00;0.00;;;19.70;99.90;;;20.34;56.36;100651.91;4944969;28;101191;-49
2022/09/16 01:53:04;;;;;;;0.00;0.00;;;19.70;99.90;;;20.17;55.77;100647.00;4945395;28;97265;-51
2022/09/16 01:55:47;;;;;;;0.00;0.00;;;19.40;99.90;;;20.09;53.52;100647.56;4940021;28;97452;-51
2022/09/16 01:58:26;;;;;;;0.00;0.00;;;19.30;99.90;;;20.06;55.84;100641.59;4960336;28;97425;-47
2022/09/16 02:01:00;;;;;;;0.00;0.00;;;19.30;99.90;;;20.05;55.67;100645.25;4957341;28;97406;-48
2022/09/16 02:03:33;;;;;;;0.00;0.00;;;19.20;99.90;;;20.05;55.76;100640.75;4945903;28;97412;-50
2022/09/16 02:06:30;;;;;;;0.00;0.00;;;19.20;99.90;;;20.03;56.39;100639.16;4951478;28;97005;-49
2022/09/16 02:09:10;;;;;;;0.00;0.00;;;19.20;99.90;;;19.91;55.13;100633.75;4933193;28;107951;-50
2022/09/16 02:11:38;;;;;;;0.00;0.00;;;19.10;99.90;;;19.94;57.18;100642.50;4947747;28;98492;-48
2022/09/16 02:14:13;;;;;;;0.00;0.00;;;19.10;99.90;;;19.98;55.02;100638.66;4952745;28;113133;-48
2022/09/16 02:17:10;;;;;;;0.00;0.00;;;19.20;99.90;;;19.97;57.42;100635.13;4950442;28;96957;-48
2022/09/16 02:19:47;;;;;;;0.00;0.00;;;19.20;99.90;;;19.88;55.14;100633.97;4937438;28;101269;-49
2022/09/16 02:22:21;;;;;;;0.00;0.00;;;19.10;99.90;;;19.89;55.38;100640.19;4949206;28;96640;-50
2022/09/16 02:24:47;;;;;;;0.00;0.00;;;19.10;99.90;;;19.96;56.68;100640.56;4942877;28;96593;-50
2022/09/16 02:27:18;;;;;;;0.00;0.00;;;19.20;99.90;;;20.03;57.43;100633.78;4945259;28;96416;-50
2022/09/16 02:29:50;;;;;;;0.00;0.00;;;19.40;99.90;;;20.05;56.07;100634.53;4954681;28;97108;-51
2022/09/16 02:32:19;;;;;;;0.00;0.00;;;19.40;99.90;;;20.00;55.99;100631.34;4948832;28;102005;-51
2022/09/16 02:34:50;;;;;;;0.00;0.00;;;19.30;99.90;;;20.00;56.55;100634.03;4953335;28;97080;-48
2022/09/16 02:37:34;;;;;;;0.00;0.00;;;19.20;99.90;;;20.04;57.13;100630.16;4951994;28;97391;-49
2022/09/16 02:40:06;;;;;;;0.00;0.00;;;19.30;99.90;;;20.06;57.13;100636.22;4953599;28;97405;-46
2022/09/16 02:42:33;;;;;;;0.00;0.00;;;19.30;99.90;;;20.02;56.59;100635.63;4944932;28;97097;-52
2022/09/16 02:45:00;;;;;;;0.07;0.07;;;19.30;99.90;;;19.95;54.51;100634.34;4955576;28;96967;-47
2022/09/16 02:47:43;;;;;;;0.00;0.00;;;19.20;99.90;;;19.87;56.24;100626.91;4958924;28;97305;-46
2022/09/16 02:50:26;;;;;;;0.00;0.00;;;19.10;99.90;;;19.91;56.57;100633.75;4954253;28;98388;-50
2022/09/16 02:52:59;;;;;;;0.00;0.00;;;19.10;99.90;;;19.97;56.32;100626.25;4955758;28;99700;-48
2022/09/16 02:55:47;;;;;;;0.00;0.00;;;19.20;99.90;;;20.05;57.48;100631.84;4952021;28;97550;-46
2022/09/16 02:58:13;;;;;;;0.00;0.00;;;19.30;99.90;;;20.05;56.49;100623.81;4955847;28;96895;-50
2022/09/16 03:00:46;;;;;;;0.00;0.00;;;19.40;99.90;;;20.15;57.21;100624.84;4953765;28;111724;-50
2022/09/16 03:03:13;;;;;;;0.00;0.00;;;19.60;99.90;;;20.21;56.88;100625.22;4951563;28;97241;-51
2022/09/16 03:06:07;;;;;;;0.00;0.00;;;19.70;99.90;;;20.31;54.58;100625.38;4955034;28;96888;-50
2022/09/16 03:08:34;;;;;;;0.00;0.00;;;19.90;99.90;;;20.34;55.94;100627.81;4947359;28;97495;-52
2022/09/16 03:11:21;;;;;;;0.00;0.00;;;19.90;99.90;;;20.39;56.29;100617.59;4957743;28;97648;-50
2022/09/16 03:14:19;;;;;;;0.00;0.00;;;19.90;99.90;;;20.43;56.14;100616.44;4945169;28;101422;-52
2022/09/16 03:16:54;;;;;;;0.00;0.00;;;20.00;99.90;;;20.37;54.88;100613.31;4945194;28;97135;-52
2022/09/16 03:19:36;;;;;;;0.00;0.00;;;19.80;99.90;;;20.32;55.98;100615.50;4941231;28;100065;-49
2022/09/16 03:22:26;;;;;;;0.00;0.00;;;19.60;99.90;;;20.20;52.44;100601.22;4953859;28;97240;-49
2022/09/16 03:24:58;;;;;;;0.00;0.00;;;19.60;99.90;;;20.07;56.23;100605.81;4946220;28;99820;-52
2022/09/16 03:27:59;;;;;;;0.00;0.00;;;19.30;99.90;;;20.07;55.95;100616.53;4936016;28;97493;-51
2022/09/16 03:30:25;;;;;;;0.00;0.00;;;19.30;99.90;;;20.13;56.53;100613.41;4949668;28;96573;-51
2022/09/16 03:33:04;;;;;;;0.00;0.00;;;19.50;99.90;;;20.05;55.07;100608.59;4957631;28;97285;-51
2022/09/16 03:35:43;;;;;;;0.00;0.00;;;19.40;99.90;;;20.11;56.59;100618.03;4945232;28;97701;-51
2022/09/16 03:38:11;;;;;;;0.00;0.00;;;19.40;99.90;;;20.16;56.46;100615.84;4949429;28;97320;-51
2022/09/16 03:40:38;;;;;;;0.00;0.00;;;19.60;99.90;;;20.23;56.60;100617.06;4949637;28;97155;-50
2022/09/16 03:43:15;;;;;;;0.00;0.00;;;19.70;99.90;;;20.24;56.17;100610.72;4952578;28;97184;-50
2022/09/16 03:45:44;;;;;;;0.00;0.00;;;19.70;99.90;;;20.30;56.20;100607.59;4943390;28;102567;-51
2022/09/16 03:48:12;;;;;;;0.00;0.00;;;19.80;99.90;;;20.34;55.80;100609.06;4954204;28;98791;-49
2022/09/16 03:50:39;;;;;;;0.00;0.00;;;19.90;99.90;;;20.35;55.92;100616.13;4951620;28;97130;-51
2022/09/16 03:53:05;;;;;;;0.00;0.00;;;19.90;99.90;;;20.36;55.29;100607.13;4957067;28;97832;-50
2022/09/16 03:55:31;;;;;;;0.00;0.00;;;19.90;99.90;;;20.33;55.66;100607.34;4949544;28;97171;-46
2022/09/16 03:57:58;;;;;;;0.00;0.00;;;19.80;99.90;;;20.32;56.07;100610.16;4948558;28;114071;-52
2022/09/16 04:00:23;;;;;;;0.00;0.00;;;19.70;99.90;;;20.30;55.75;100606.75;4941171;28;106795;-51
2022/09/16 04:02:49;;;;;;;0.00;0.00;;;19.70;99.90;;;20.32;55.96;100608.31;4947585;28;97615;-52
2022/09/16 04:05:15;;;;;;;0.37;0.20;;;19.80;99.90;;;20.30;55.80;100604.91;4950484;28;115337;-52
2022/09/16 04:07:41;;;;;;;0.00;0.00;;;19.70;99.90;;;20.26;55.68;100600.78;4944738;28;97199;-51
2022/09/16 04:10:07;;;;;;;0.00;0.00;;;19.60;99.90;;;20.26;56.21;100594.56;4949460;28;103785;-53
2022/09/16 04:12:33;;;;;;;0.00;0.00;;;19.60;99.90;;;20.25;56.27;100601.72;4950229;28;100629;-50
2022/09/16 04:14:59;;;;;;;0.00;0.00;;;19.60;99.90;;;20.24;56.19;100600.00;4946581;28;97313;-52
2022/09/16 04:17:25;;;;;;;0.00;0.00;;;19.60;99.90;;;20.25;56.31;100599.03;4946428;28;98346;-49
2022/09/16 04:19:51;;;;;;;0.00;0.00;;;19.60;99.90;;;20.30;56.22;100596.03;4953691;28;97365;-49
2022/09/16 04:22:18;;;;;;;0.00;0.00;;;19.80;99.90;;;20.32;56.09;100599.44;4938269;28;98690;-55
2022/09/16 04:24:44;;;;;;;0.00;0.00;;;19.80;99.90;;;20.33;55.86;100596.63;4950985;28;97117;-51
2022/09/16 04:27:09;;;;;;;0.00;0.00;;;19.90;99.90;;;20.35;56.25;100600.06;4943240;28;105718;-50
2022/09/16 04:29:35;;;;;;;0.00;0.00;;;19.90;99.90;;;20.35;56.07;100599.19;4939084;28;96990;-53
2022/09/16 04:32:01;;;;;;;0.00;0.00;;;19.80;99.90;;;20.33;55.14;100596.63;4940549;28;98698;-49
2022/09/16 04:34:27;;;;;;;0.00;0.00;;;19.80;99.90;;;20.31;56.24;100598.59;4937364;28;98173;-52
2022/09/16 04:36:53;;;;;;;0.00;0.00;;;19.70;99.90;;;20.26;56.15;100590.06;4939799;28;97156;-52
2022/09/16 04:39:19;;;;;;;0.00;0.00;;;19.60;99.90;;;20.19;55.83;100591.50;4937526;28;107471;-48
2022/09/16 04:41:44;;;;;;;0.00;0.00;;;19.50;99.90;;;20.13;56.19;100594.66;4945953;28;99597;-49
2022/09/16 04:44:10;;;;;;;0.00;0.00;;;19.40;99.90;;;20.03;53.57;100593.63;4953630;28;97587;-52
2022/09/16 04:46:36;;;;;;;0.00;0.00;;;19.30;99.90;;;19.99;55.84;100594.84;4946386;28;97087;-47
2022/09/16 04:49:03;;;;;;;0.00;0.00;;;19.20;99.90;;;20.03;56.78;100599.00;4951948;28;96946;-52
2022/09/16 04:51:29;;;;;;;0.00;0.00;;;19.30;99.90;;;20.06;56.24;100588.03;4943231;28;98022;-48
2022/09/16 04:53:56;;;;;;;0.00;0.00;;;19.40;99.90;;;20.07;56.44;100600.47;4950734;28;98624;-51
2022/09/16 04:56:30;;;;;;;0.40;0.23;;;19.40;99.90;;;20.09;56.38;100603.88;4947054;28;101083;-53
2022/09/16 04:59:00;;;;;;;0.00;0.00;;;19.50;99.90;;;20.12;56.50;100603.66;4953104;28;97573;-51
2022/09/16 05:01:29;;;;;;;0.00;0.00;;;19.50;99.90;;;19.99;56.08;100603.72;4940461;28;97261;-50
2022/09/16 05:04:00;;;;;;;0.03;0.03;;;19.30;99.90;;;20.00;53.38;100604.59;4954646;28;98155;-48
2022/09/16 05:06:29;;;;;;;0.00;0.00;;;19.30;99.90;;;19.95;54.89;100601.38;4948386;28;97530;-54
2022/09/16 05:08:56;;;;;;;0.00;0.00;;;19.20;99.90;;;19.92;56.36;100600.66;4954767;28;97436;-49
2022/09/16 05:11:26;;;;;;;0.13;0.07;;;19.20;99.90;;;20.02;56.96;100608.00;4944442;28;97516;-48
2022/09/16 05:13:52;;;;;;;0.00;0.00;;;19.40;99.90;;;20.03;56.23;100596.31;4948835;28;97261;-49
2022/09/16 05:16:21;;;;;;;0.00;0.00;;;19.50;99.90;;;19.92;52.79;100597.97;4946563;28;96728;-53
2022/09/16 05:18:49;;;;;;;0.00;0.00;;;19.30;99.90;;;19.90;52.51;100594.56;4948308;28;97041;-52
2022/09/16 05:21:20;;;;;;;0.00;0.00;;;19.30;99.90;;;19.91;56.61;100595.41;4948874;28;97434;-49
2022/09/16 05:23:47;;;;;;;0.03;0.03;;;19.20;99.90;;;19.94;56.76;100595.19;4947578;28;97238;-47
2022/09/16 05:26:25;;;;;;;0.00;0.00;;;19.30;99.90;;;19.94;55.19;100594.31;4941812;28;97019;-52
2022/09/16 05:28:51;;;;;;;0.00;0.00;;;19.40;99.90;;;20.02;56.74;100602.63;4951451;28;97278;-49
2022/09/16 05:31:25;;;;;;;0.00;0.00;;;19.50;99.90;;;20.08;56.42;100603.00;4944989;28;99845;-50
2022/09/16 05:34:09;;;;;;;0.00;0.00;;;19.60;99.90;;;20.08;56.07;100607.50;4951074;28;97132;-51
2022/09/16 05:36:38;;;;;;;0.00;0.00;;;19.60;99.90;;;20.05;55.63;100613.09;4949174;28;97391;-54
2022/09/16 05:39:05;;;;;;;0.00;0.00;;;19.40;99.90;;;20.05;55.64;100607.75;4953814;28;97092;-50
2022/09/16 05:41:32;;;;;;;0.00;0.00;;;19.40;99.90;;;20.02;55.80;100613.34;4946209;28;98565;-51
2022/09/16 05:43:59;;;;;;;0.00;0.00;;;19.40;99.90;;;20.01;54.29;100608.97;4954570;28;100796;-53
2022/09/16 05:46:26;;;;;;;0.00;0.00;;;19.40;99.90;;;19.94;54.76;100605.88;4946451;28;97072;-51
2022/09/16 05:48:53;;;;;;;0.00;0.00;;;19.20;99.90;;;20.01;56.88;100608.97;4951894;28;97104;-52
2022/09/16 05:51:21;;;;;;;0.20;0.00;;;19.40;99.90;;;20.07;56.96;100611.16;4949926;28;98614;-52
2022/09/16 05:53:49;;;;;;;0.00;0.00;;;19.60;99.90;;;20.11;56.50;100618.88;4950282;28;98978;-52
2022/09/16 05:56:26;;;;;;;0.00;0.00;;;19.60;99.90;;;20.09;56.62;100614.56;4949140;28;97314;-52
2022/09/16 05:58:58;;;;;;;0.00;0.00;;;19.50;99.90;;;20.14;56.38;100604.38;4945372;28;104340;-51
2022/09/16 06:01:28;;;;;;;0.20;0.10;;;19.60;99.90;;;20.20;55.45;100617.31;4949081;28;97055;-49
2022/09/16 06:03:54;;;;;;;0.00;0.00;;;19.70;99.90;;;20.27;56.32;100618.56;4947988;28;97235;-49
2022/09/16 06:06:23;;;;;;;0.00;0.00;;;19.90;99.90;;;20.32;56.01;100607.47;4936856;28;97399;-54
2022/09/16 06:08:54;;;;;;;0.00;0.00;;;19.90;99.90;;;20.35;55.67;100610.75;4943721;28;96805;-54
2022/09/16 06:11:21;;;;;;;0.00;0.00;;;20.00;99.90;;;20.36;51.98;100607.13;4947053;28;98861;-49
2022/09/16 06:13:47;;;;;;;0.00;0.00;;;20.00;99.90;;;20.36;55.65;100606.25;4951082;28;96920;-52
2022/09/16 06:16:16;;;;;;;0.00;0.00;;;19.90;99.90;;;20.39;55.69;100604.19;4967741;28;97307;-52
2022/09/16 06:18:42;;;;;;;0.00;0.00;;;20.00;99.90;;;20.42;55.69;100612.03;4949366;28;96858;-49
2022/09/16 06:21:10;;;;;;;0.00;0.00;;;20.00;99.90;;;20.44;55.46;100599.38;4952287;28;97049;-53
2022/09/16 06:23:37;;;;;;;0.00;0.00;;;20.10;99.90;;;20.49;55.42;100607.91;4948390;28;97248;-50
2022/09/16 06:26:24;;;;;;;0.00;0.00;;;20.20;99.90;;;20.59;53.67;100607.19;4951290;28;97140;-49
2022/09/16 06:28:51;;;;;;;0.00;0.00;;;20.30;99.90;;;20.62;54.96;100623.03;4947085;28;97388;-49
2022/09/16 06:31:20;;;;;;;0.00;0.00;;;20.40;99.90;;;20.56;54.03;100612.81;4946432;28;97636;-49
2022/09/16 06:33:46;;;;;;;0.00;0.00;;;20.20;99.90;;;20.60;54.79;100615.13;4946420;28;98456;-49
2022/09/16 06:36:16;;;;;;;0.00;0.00;;;20.40;99.90;;;20.63;54.59;100616.69;4945207;28;97575;-55
2022/09/16 06:38:43;;;;;;;0.00;0.00;;;20.40;99.90;;;20.63;54.25;100611.34;4944684;28;97082;-46
2022/09/16 06:41:11;;;;;;;0.00;0.00;;;20.40;99.90;;;20.65;54.55;100609.38;4949925;28;96800;-52
2022/09/16 06:43:38;;;;;;;0.00;0.00;;;20.40;99.90;;;20.70;54.44;100600.03;4944583;28;101255;-52
2022/09/16 06:46:25;;;;;;;0.00;0.00;;;20.50;99.90;;;20.73;53.75;100610.50;4951165;28;97269;-49
2022/09/16 06:48:55;;;;;;;0.00;0.00;;;20.50;99.90;;;20.76;53.69;100609.41;4950555;28;97861;-49
2022/09/16 06:51:24;;;;;;;0.00;0.00;;;20.60;99.90;;;20.76;53.86;100612.06;4948400;28;97758;-49
2022/09/16 06:53:52;;;;;;;0.00;0.00;;;20.60;99.90;;;20.77;53.80;100611.09;4946633;28;96842;-50
2022/09/16 06:56:20;;;;;;;0.00;0.00;;;20.60;99.90;;;20.79;54.00;100609.16;4943916;28;97138;-55
2022/09/16 06:58:48;;;;;;;0.00;0.00;;;20.60;99.90;;;20.73;52.93;100609.66;4950183;28;97750;-52
2022/09/16 07:01:19;;;;;;;0.00;0.00;;;20.50;99.90;;;20.77;53.70;100611.09;4945091;28;97501;-49
2022/09/16 07:03:49;;;;;;;0.20;0.00;;;20.60;99.90;;;20.64;52.64;100615.72;4948845;28;97371;-52
2022/09/16 07:06:19;;;;;;;0.00;0.00;;;20.50;99.90;;;20.65;52.82;100623.63;4944001;28;97401;-50
2022/09/16 07:08:45;;;;;;;0.00;0.00;;;20.40;99.90;;;20.70;53.94;100609.91;4950494;28;97146;-54
2022/09/16 07:11:19;;;;;;;0.00;0.00;;;20.50;99.90;;;20.66;53.61;100619.13;4942928;28;97474;-49
2022/09/16 07:13:46;;;;;;;0.00;0.00;;;20.40;99.90;;;20.69;53.51;100618.91;4942932;28;99788;-53
2022/09/16 07:16:15;;;;;;;0.00;0.00;;;20.50;99.90;;;20.66;53.44;100621.81;4944941;28;97267;-50
2022/09/16 07:18:42;;;;;;;0.00;0.00;;;20.40;99.90;;;20.65;53.04;100612.91;4945969;28;97358;-53
2022/09/16 07:21:12;;;;;;;0.00;0.00;;;20.40;99.90;;;20.64;53.70;100611.22;4950773;28;97443;-50
2022/09/16 07:23:40;;;;;;;0.00;0.00;;;20.30;99.90;;;20.65;53.46;100610.25;4948905;28;100542;-54
2022/09/16 07:26:10;;;;;;;0.00;0.00;;;20.40;99.90;;;20.63;54.25;100612.19;4953081;28;96993;-50
2022/09/16 07:28:39;;;;;;;0.00;0.00;;;20.30;99.90;;;20.63;54.09;100619.38;4948092;28;97191;-54
2022/09/16 07:31:11;;;;;;;0.00;0.00;;;20.30;99.90;;;20.69;53.97;100624.28;4944144;28;96853;-51
2022/09/16 07:33:41;;;;;;;0.00;0.00;;;20.40;99.90;;;20.65;54.01;100628.13;4942302;28;101268;-52
2022/09/16 07:36:10;;;;;;;0.00;0.00;;;20.40;99.90;;;20.65;54.01;100631.69;4951798;28;97042;-51
2022/09/16 07:38:36;;;;;;;0.00;0.00;;;20.40;99.90;;;20.58;50.62;100624.25;4944579;28;96714;-52
2022/09/16 07:41:18;;;;;;;0.00;0.00;;;20.20;99.90;;;20.48;54.53;100629.47;4942329;28;97423;-54
2022/09/16 07:43:45;;;;;;;0.00;0.00;;;20.00;99.90;;;20.54;54.66;100636.16;4948232;28;99906;-51
2022/09/16 07:46:15;;;;;;;0.00;0.00;;;20.20;99.90;;;20.56;52.80;100631.56;4953233;28;97398;-53
2022/09/16 07:48:42;;;;;;;0.00;0.00;;;20.20;99.90;;;20.45;54.40;100633.22;4942259;28;97458;-53
2022/09/16 07:51:11;;;;;;;0.00;0.00;;;20.00;99.90;;;20.47;53.34;100636.66;4953554;28;97573;-51
2022/09/16 07:53:38;;;;;;;0.00;0.00;;;20.10;99.90;;;20.47;54.49;100644.69;4949063;28;102478;-51
2022/09/16 07:56:24;;;;;;;0.00;0.00;;;20.10;99.90;;;20.46;54.35;100642.13;4946926;28;96684;-49
2022/09/16 07:58:51;;;;;;;0.00;0.00;;;20.10;99.90;;;20.53;54.21;100639.81;4944855;28;98878;-54
2022/09/16 08:01:17;;;;;;;0.00;0.00;;;20.30;99.90;;;20.54;54.19;100652.22;4941966;28;98232;-52
2022/09/16 08:03:45;;;;;;;0.00;0.00;;;20.30;99.90;;;20.48;52.00;100656.25;4954011;28;97628;-47
2022/09/16 08:06:21;;;;;;;0.00;0.00;;;20.30;99.90;;;20.45;53.41;100660.03;4951572;28;97023;-49
2022/09/16 08:08:47;;;;;;;0.00;0.00;;;20.20;99.90;;;20.38;53.45;100648.03;4943479;28;97937;-53
2022/09/16 08:11:14;;;;;;;0.00;0.00;;;20.20;99.90;;;20.40;53.95;100648.78;4939415;28;96761;-50
2022/09/16 08:13:42;;;;;;;0.20;0.20;;;20.20;99.90;;;20.44;54.01;100650.28;4939323;28;120398;-49
2022/09/16 08:16:20;;;;;;;0.00;0.00;;;20.30;99.90;;;20.45;54.26;100660.03;4953155;28;97050;-52
2022/09/16 08:18:49;;;;;;;0.00;0.00;;;20.30;99.90;;;20.46;54.17;100661.72;4940672;28;97043;-48
2022/09/16 08:21:22;;;;;;;0.00;0.00;;;20.30;99.90;;;20.39;53.64;100657.75;4946530;28;98115;-49
2022/09/16 08:23:48;;;;;;;0.00;0.00;;;20.20;99.90;;;20.43;53.97;100653.94;4944175;28;97089;-50
2022/09/16 08:26:17;;;;;;;0.00;0.00;;;20.20;99.90;;;20.32;54.65;100661.91;4950169;28;97057;-52
2022/09/16 08:28:44;;;;;;;0.00;0.00;;;19.90;99.90;;;20.40;52.97;100664.84;4946040;28;97597;-49
2022/09/16 08:31:11;;;;;;;0.00;0.00;;;20.20;99.90;;;20.44;53.64;100658.31;4954088;28;98607;-47
2022/09/16 08:33:39;;;;;;;0.00;0.00;;;20.20;99.90;;;20.48;53.08;100669.66;4952826;28;97234;-49
2022/09/16 08:36:18;;;;;;;0.00;0.00;;;20.30;99.90;;;20.56;52.90;100677.97;4954966;28;96850;-53
2022/09/16 08:38:45;;;;;;;0.07;0.07;;;20.40;99.90;;;20.43;48.22;100661.97;4941899;28;97245;-49
2022/09/16 08:42:03;;;;;;;0.00;0.00;;;20.30;99.90;;;20.43;50.75;100667.31;4956850;28;97758;-49
2022/09/16 08:44:50;;;;;;;0.00;0.00;;;20.20;99.90;;;20.35;47.95;100667.00;4949302;28;100327;-50
2022/09/16 08:47:37;;;;;;;0.00;0.00;;;20.20;99.90;;;20.40;49.60;100672.03;4951728;28;98416;-46
2022/09/16 08:50:12;;;;;;;0.00;0.00;;;20.30;99.90;;;20.28;51.73;100663.13;4953346;28;97220;-52
2022/09/16 08:52:39;;;;;;;0.00;0.00;;;20.10;99.90;;;20.20;49.82;100661.00;4947410;28;102201;-51
2022/09/16 08:55:30;;;;;;;0.10;0.10;;;20.10;99.90;;;20.30;52.24;100668.34;4953495;28;97480;-51
2022/09/16 08:58:12;;;;;;;0.00;0.00;;;20.10;99.90;;;20.23;50.93;100670.63;4944722;28;97407;-53
2022/09/16 09:00:39;;;;;;;0.00;0.00;;;20.10;99.90;;;20.30;52.53;100665.66;4946298;28;96764;-52
2022/09/16 09:03:29;;;;;;;0.00;0.00;;;20.10;99.90;;;20.30;50.86;100666.53;4946258;28;97156;-51
2022/09/16 09:06:01;;;;;;;0.73;0.10;;;20.20;99.90;;;20.28;50.68;100668.47;4952100;28;101545;-51
2022/09/16 09:09:02;;;;;;;0.00;0.00;;;20.10;99.90;;;20.33;49.21;100660.94;4948191;28;97200;-51
2022/09/16 09:11:49;;;;;;;1.07;0.30;;;20.20;99.90;;;20.36;49.17;100666.03;4928148;28;97072;-53
2022/09/16 09:14:40;;;;;;;0.00;0.00;;;20.20;99.90;;;20.34;50.48;100670.66;4950086;28;98616;-52
2022/09/16 09:17:56;;;;;;;0.00;0.00;;;20.20;99.90;;;20.20;46.67;100662.81;4951833;28;97052;-54
2022/09/16 09:20:36;;;;;;;0.00;0.00;;;20.10;99.90;;;20.37;54.16;100673.09;4936066;28;96936;-47
2022/09/16 09:23:32;;;;;;;3.20;0.20;;;20.10;99.90;;;20.37;48.27;100666.91;4955722;28;97078;-53
2022/09/16 09:26:10;;;;;;;0.10;0.10;;;20.20;99.90;;;20.42;53.24;100665.63;4936911;28;101757;-50
2022/09/16 09:29:03;;;;;;;0.00;0.00;;;20.20;99.90;;;20.49;53.18;100666.00;4929655;28;97514;-52
2022/09/16 09:31:59;;;;;;;0.00;0.00;;;20.20;99.90;;;20.44;52.00;100663.69;4931220;28;97024;-51
2022/09/16 09:34:41;;;;;;;0.00;0.00;;;20.20;99.90;;;20.35;48.74;100667.00;4931829;28;97896;-55
2022/09/16 09:37:41;;;;;;;0.00;0.00;;;20.10;99.90;;;20.46;52.59;100659.06;4930868;28;98726;-54
2022/09/16 09:40:44;;;;;;;0.00;0.00;;;20.20;99.90;;;20.50;51.50;100663.19;4929314;28;101833;-55
2022/09/16 09:43:23;;;;;;;0.00;0.00;;;20.30;99.90;;;20.45;50.76;100670.75;4927224;28;98233;-51
2022/09/16 09:46:03;;;;;;;0.00;0.00;;;20.30;99.90;;;20.41;50.19;100658.56;4941023;28;100089;-50
2022/09/16 09:48:40;;;;;;;0.00;0.00;;;20.30;99.90;;;20.22;51.34;100658.19;4924627;28;97165;-47
2022/09/16 09:51:36;;;;;;;0.10;0.10;;;19.90;99.90;;;20.39;53.37;100664.94;4928715;28;97985;-52
2022/09/16 09:54:30;;;;;;;1.97;0.17;;;20.20;99.90;;;20.24;52.78;100661.63;4928983;28;101667;-51
2022/09/16 09:57:03;;;;;;;0.00;0.00;;;20.00;99.90;;;20.18;46.67;100656.72;4921167;28;97306;-53
2022/09/16 09:59:48;;;;;;;0.00;0.00;;;19.90;99.90;;;20.24;52.20;100661.63;4925578;28;98748;-50
2022/09/16 10:02:19;;;;;;;0.23;0.10;;;19.90;99.90;;;20.19;47.07;100659.28;4929938;28;97223;-54
2022/09/16 10:04:45;;;;;;;0.00;0.00;;;20.00;99.90;;;20.09;47.50;100654.75;4927051;28;97261;-49
2022/09/16 10:07:16;;;;;;;0.00;0.00;;;19.90;99.90;;;20.14;52.13;100658.81;4930227;28;97377;-49
2022/09/16 10:09:54;;;;;;;0.00;0.00;;;19.80;99.90;;;20.31;53.98;100657.50;4924857;28;102225;-52
2022/09/16 10:12:34;;;;;;;0.00;0.00;;;20.00;99.90;;;20.40;52.28;100656.81;4929651;28;97378;-52
2022/09/16 10:15:01;;;;;;;0.00;0.00;;;20.20;99.90;;;20.44;49.48;100647.59;4929108;28;99758;-54
2022/09/16 10:17:31;;;;;;;0.00;0.00;;;20.30;99.90;;;20.39;48.67;100659.59;4924833;28;100392;-53
2022/09/16 10:20:35;;;;;;;0.00;0.00;;;20.20;99.90;;;20.39;51.33;100649.72;4928359;28;98955;-51
2022/09/16 10:23:15;;;;;;;0.00;0.00;;;20.20;99.90;;;20.40;53.07;100640.75;4929183;28;100437;-49
2022/09/16 10:25:42;;;;;;;0.00;0.00;;;20.20;99.90;;;20.33;44.20;100647.53;4929953;28;97198;-48
2022/09/16 10:28:25;;;;;;;0.00;0.00;;;20.20;99.40;;;20.43;49.54;100639.69;4932578;28;96864;-49
2022/09/16 10:30:55;;;;;;;0.00;0.00;;;20.30;99.90;;;20.52;51.44;100643.47;4928352;28;102943;-51
2022/09/16 10:33:29;;;;;;;0.00;0.00;;;20.40;99.90;;;20.59;51.91;100634.00;4927858;28;98254;-48
2022/09/16 10:36:21;;;;;;;0.00;0.00;;;20.50;99.90;;;20.65;50.95;100630.81;4928164;28;99237;-51
2022/09/16 10:38:59;;;;;;;0.00;0.00;;;20.50;99.90;;;20.63;49.38;100635.44;4924243;28;97870;-53